Time;durP1;ratioP1;P1;durP2;ratioP2;P2;SDS_P1;SDS_P2;PMS_P1;PMS_P2;Temp;Humidity;BMP_temperature;BMP_pressure;BME280_temperature;BME280_humidity;BME280_pressure;Samples;Min_cycle;Max_cycle;Signal;HPM_P1;HPM_P2
2023/09/29 00:00:27;;;;;;;10.80;4.18;;;;;;;15.48;62.64;99734.19;6158560;23;20051;-92
2023/09/29 00:02:55;;;;;;;10.13;4.03;;;;;;;15.51;62.79;99743.66;6136424;23;20425;-93
2023/09/29 00:05:21;;;;;;;8.50;4.03;;;;;;;15.43;62.89;99757.88;6136087;23;20459;-93
2023/09/29 00:07:48;;;;;;;9.32;4.32;;;;;;;15.48;62.80;99772.19;6111677;23;20003;-93
2023/09/29 00:10:15;;;;;;;7.43;3.83;;;;;;;15.41;62.99;99762.78;6134647;23;20002;-93
2023/09/29 00:12:42;;;;;;;10.30;4.40;;;;;;;15.42;62.72;99756.22;6136117;23;20009;-93
2023/09/29 00:15:07;;;;;;;8.52;4.07;;;;;;;15.51;62.62;99766.16;6136136;23;20001;-92
2023/09/29 00:17:33;;;;;;;5.82;3.50;;;;;;;15.37;62.28;99740.84;6111273;23;19997;-92
2023/09/29 00:19:59;;;;;;;11.13;4.05;;;;;;;15.60;61.13;99765.50;6135243;23;19997;-90
2023/09/29 00:22:25;;;;;;;8.35;4.30;;;;;;;15.29;62.59;99745.03;6134951;23;20002;-93
2023/09/29 00:24:50;;;;;;;10.85;4.93;;;;;;;15.28;63.26;99753.44;6134903;23;20009;-93
2023/09/29 00:27:16;;;;;;;11.05;4.85;;;;;;;15.26;63.34;99756.44;6111523;23;20001;-93
2023/09/29 00:29:42;;;;;;;10.52;5.63;;;;;;;15.29;63.52;99769.44;6134117;23;20074;-93
2023/09/29 00:32:07;;;;;;;9.18;4.95;;;;;;;15.15;63.54;99763.91;6110533;23;19997;-93
2023/09/29 00:34:33;;;;;;;9.05;5.25;;;;;;;15.14;63.53;99756.03;6111711;23;20088;-92
2023/09/29 00:36:59;;;;;;;14.55;5.28;;;;;;;15.11;63.54;99754.72;6111116;23;20006;-92
2023/09/29 00:39:24;;;;;;;11.48;6.00;;;;;;;15.03;64.03;99758.06;6111536;23;19997;-92
2023/09/29 00:41:50;;;;;;;13.93;5.75;;;;;;;15.03;63.90;99762.69;6135398;23;20008;-92
2023/09/29 00:44:16;;;;;;;15.65;6.65;;;;;;;14.95;64.06;99755.97;6111655;23;20007;-92
2023/09/29 00:46:42;;;;;;;12.90;6.00;;;;;;;15.01;63.96;99757.53;6135692;23;20068;-92
2023/09/29 00:49:08;;;;;;;13.95;6.03;;;;;;;14.94;64.21;99749.75;6111006;23;20001;-92
2023/09/29 00:51:34;;;;;;;14.68;5.10;;;;;;;15.01;63.87;99749.41;6110875;23;20428;-92
2023/09/29 00:54:08;;;;;;;14.15;6.38;;;;;;;14.90;63.76;99728.91;6110514;23;19997;-93
2023/09/29 00:56:35;;;;;;;11.20;6.53;;;;;;;14.94;64.01;99747.03;6112260;23;20083;-94
2023/09/29 00:59:05;;;;;;;12.25;6.32;;;;;;;14.92;64.29;99753.84;6135378;23;20013;-90
2023/09/29 01:01:31;;;;;;;11.07;5.60;;;;;;;14.91;64.25;99754.94;6110699;23;20084;-91
2023/09/29 01:03:56;;;;;;;15.70;5.97;;;;;;;14.87;64.45;99752.00;6111438;23;20396;-92
2023/09/29 01:06:22;;;;;;;10.73;5.70;;;;;;;14.77;64.33;99752.09;6110224;23;20084;-92
2023/09/29 01:08:47;;;;;;;10.98;5.85;;;;;;;14.92;64.45;99773.66;6159196;23;20004;-93
2023/09/29 01:11:13;;;;;;;13.35;6.35;;;;;;;14.91;64.08;99755.75;6134857;23;20073;-92
2023/09/29 01:13:40;;;;;;;14.65;6.00;;;;;;;14.84;64.22;99746.34;6110186;23;19997;-93
2023/09/29 01:16:07;;;;;;;15.05;5.80;;;;;;;14.83;64.21;99740.09;6109837;23;20007;-92
2023/09/29 01:18:33;;;;;;;13.85;6.05;;;;;;;14.96;64.18;99749.44;6111249;23;20056;-93
2023/09/29 01:20:59;;;;;;;13.13;6.38;;;;;;;14.90;64.62;99756.03;6109555;23;20001;-93
2023/09/29 01:23:30;;;;;;;17.95;6.63;;;;;;;14.89;64.62;99766.06;6134843;23;20012;-92
2023/09/29 01:25:56;;;;;;;12.45;6.30;;;;;;;14.89;65.03;99776.91;6136220;23;20060;-92
2023/09/29 01:28:21;;;;;;;10.88;5.78;;;;;;;14.75;65.13;99768.66;6133604;23;20009;-92
2023/09/29 01:30:53;;;;;;;11.30;5.63;;;;;;;14.75;65.07;99774.09;6110462;23;20449;-93
2023/09/29 01:33:18;;;;;;;12.98;7.07;;;;;;;14.77;64.57;99771.06;6112347;23;20012;-92
2023/09/29 01:35:44;;;;;;;18.08;6.07;;;;;;;14.63;64.79;99749.28;6109408;23;19990;-92
2023/09/29 01:38:09;;;;;;;19.27;6.30;;;;;;;14.79;64.65;99765.38;6111050;23;20471;-91
2023/09/29 01:40:35;;;;;;;13.88;6.32;;;;;;;14.71;64.65;99740.53;6109538;23;19998;-92
2023/09/29 01:43:00;;;;;;;13.02;6.60;;;;;;;14.79;64.72;99760.75;6133885;23;20004;-93
2023/09/29 01:45:26;;;;;;;13.85;6.22;;;;;;;14.62;64.77;99738.72;6136169;23;20001;-92
2023/09/29 01:47:52;;;;;;;12.10;5.72;;;;;;;14.61;64.88;99761.47;6109964;23;20484;-93
2023/09/29 01:50:21;;;;;;;13.63;5.88;;;;;;;14.56;64.87;99751.50;6109681;23;20002;-92
2023/09/29 01:52:47;;;;;;;10.90;5.97;;;;;;;14.57;65.01;99763.97;6109095;23;20096;-92
2023/09/29 01:55:19;;;;;;;15.13;6.38;;;;;;;14.52;65.25;99774.81;6110041;23;20036;-93
2023/09/29 01:57:46;;;;;;;14.60;6.30;;;;;;;14.41;65.43;99763.25;6115373;23;20008;-93
2023/09/29 02:00:19;;;;;;;12.95;6.80;;;;;;;14.33;65.61;99763.84;6114524;23;20032;-93
2023/09/29 02:02:47;;;;;;;17.42;6.28;;;;;;;14.35;65.33;99758.97;6142561;23;20000;-92
2023/09/29 02:05:13;;;;;;;18.58;7.10;;;;;;;14.37;65.53;99770.31;6114798;23;19981;-92
2023/09/29 02:07:39;;;;;;;18.88;7.32;;;;;;;14.27;65.76;99775.81;6114020;23;20004;-90
2023/09/29 02:10:07;;;;;;;13.45;6.38;;;;;;;14.41;65.51;99773.28;6114715;23;20417;-92
2023/09/29 02:12:33;;;;;;;12.20;6.20;;;;;;;14.46;65.18;99774.03;6115236;23;20062;-94
2023/09/29 02:14:58;;;;;;;14.73;6.00;;;;;;;14.33;65.03;99748.41;6113987;23;20004;-91
2023/09/29 02:17:25;;;;;;;11.65;5.72;;;;;;;14.54;65.17;99775.31;6114686;23;20012;-92
2023/09/29 02:19:52;;;;;;;14.65;6.35;;;;;;;14.31;66.02;99769.56;6115816;23;20012;-93
2023/09/29 02:22:19;;;;;;;15.80;7.20;;;;;;;14.34;65.99;99795.28;6116008;23;20005;-92
2023/09/29 02:24:45;;;;;;;12.05;6.60;;;;;;;14.09;65.85;99780.84;6115416;23;20032;-92
2023/09/29 02:27:10;;;;;;;16.80;6.95;;;;;;;14.03;66.37;99779.25;6114578;23;20012;-92
2023/09/29 02:29:36;;;;;;;14.45;7.05;;;;;;;14.07;66.79;99788.44;6115484;23;20005;-92
2023/09/29 02:32:01;;;;;;;13.82;6.78;;;;;;;13.98;66.71;99787.41;6115060;23;19997;-92
2023/09/29 02:34:28;;;;;;;10.18;6.65;;;;;;;13.98;66.58;99803.63;6114266;23;20001;-92
2023/09/29 02:36:54;;;;;;;10.82;6.43;;;;;;;13.99;66.79;99804.47;6141068;23;20001;-91
2023/09/29 02:39:21;;;;;;;14.05;6.68;;;;;;;13.77;67.24;99794.03;6113993;23;20009;-92
2023/09/29 02:41:48;;;;;;;18.52;7.25;;;;;;;13.77;66.95;99783.22;6115404;23;20015;-93
2023/09/29 02:44:13;;;;;;;12.18;6.90;;;;;;;13.88;66.81;99791.00;6115060;23;20001;-92
2023/09/29 02:46:39;;;;;;;12.27;6.60;;;;;;;13.75;67.71;99787.00;6138589;23;20416;-91
2023/09/29 02:49:07;;;;;;;17.48;7.43;;;;;;;13.77;67.44;99799.44;6114719;23;20020;-91
2023/09/29 02:51:33;;;;;;;12.48;6.35;;;;;;;13.75;67.23;99788.88;6116059;23;20091;-94
2023/09/29 02:53:58;;;;;;;13.00;6.45;;;;;;;13.76;67.38;99793.22;6139469;23;20416;-92
2023/09/29 02:56:24;;;;;;;12.32;6.22;;;;;;;13.69;67.47;99788.09;6114725;23;19997;-91
2023/09/29 02:58:52;;;;;;;14.10;6.78;;;;;;;13.65;67.68;99783.53;6109402;23;20014;-92
2023/09/29 03:01:18;;;;;;;14.80;6.60;;;;;;;13.81;67.53;99803.22;6110620;23;20005;-92
2023/09/29 03:03:45;;;;;;;13.73;6.35;;;;;;;13.66;67.63;99787.88;6134770;23;20448;-92
2023/09/29 03:06:21;;;;;;;15.63;6.38;;;;;;;13.62;67.77;99781.41;6132200;23;20031;-92
2023/09/29 03:08:54;;;;;;;19.58;6.78;;;;;;;13.73;67.83;99802.69;6111397;23;20020;-92
2023/09/29 03:11:20;;;;;;;19.20;7.05;;;;;;;13.57;67.94;99798.44;6111432;23;20325;-92
2023/09/29 03:13:46;;;;;;;14.90;7.55;;;;;;;13.59;68.05;99796.28;6134135;23;20057;-92
2023/09/29 03:16:12;;;;;;;16.88;7.40;;;;;;;13.59;68.00;99787.34;6109384;23;20009;-93
2023/09/29 03:18:38;;;;;;;12.65;6.75;;;;;;;13.63;67.64;99791.13;6110724;23;20057;-92
2023/09/29 03:21:04;;;;;;;16.98;7.13;;;;;;;13.83;67.78;99809.97;6109578;23;20002;-92
2023/09/29 03:23:33;;;;;;;12.88;6.93;;;;;;;13.79;67.53;99797.28;6109847;23;20005;-92
2023/09/29 03:25:59;;;;;;;14.20;6.63;;;;;;;13.72;67.74;99789.47;6109820;23;20025;-92
2023/09/29 03:28:25;;;;;;;16.52;7.03;;;;;;;13.54;67.82;99801.72;6157621;23;20021;-93
2023/09/29 03:30:51;;;;;;;15.40;6.30;;;;;;;13.59;67.76;99809.78;6109900;23;20005;-92
2023/09/29 03:33:17;;;;;;;11.98;7.32;;;;;;;13.44;68.19;99785.53;6133833;23;20002;-91
2023/09/29 03:35:42;;;;;;;17.60;6.45;;;;;;;13.53;67.94;99798.22;6108883;23;20005;-91
2023/09/29 03:38:08;;;;;;;20.05;6.82;;;;;;;13.65;67.53;99797.88;6133885;23;20005;-91
2023/09/29 03:40:34;;;;;;;18.23;7.45;;;;;;;13.54;67.70;99788.19;6108714;23;20004;-92
2023/09/29 03:42:59;;;;;;;15.60;7.47;;;;;;;13.51;68.39;99811.19;6157223;23;20010;-91
2023/09/29 03:45:26;;;;;;;14.60;7.03;;;;;;;13.41;68.16;99786.09;6108803;23;20005;-92
2023/09/29 03:47:51;;;;;;;15.20;7.10;;;;;;;13.34;68.30;99784.50;6160623;23;20444;-91
2023/09/29 03:50:17;;;;;;;23.58;7.82;;;;;;;13.45;68.52;99808.81;6135411;23;20033;-92
2023/09/29 03:52:45;;;;;;;13.68;7.30;;;;;;;13.43;68.40;99800.16;6158867;23;20005;-91
2023/09/29 03:55:12;;;;;;;16.75;6.80;;;;;;;13.38;68.82;99819.09;6136021;23;20530;-91
2023/09/29 03:57:38;;;;;;;15.45;7.38;;;;;;;13.19;69.15;99802.63;6162312;23;20012;-90
2023/09/29 04:00:09;;;;;;;23.17;7.35;;;;;;;13.18;69.47;99811.81;6165173;23;19997;-91
2023/09/29 04:02:57;;;;;;;11.73;7.00;;;;;;;13.07;69.50;99803.75;6144137;23;20025;-92
2023/09/29 04:05:23;;;;;;;17.08;7.32;;;;;;;13.05;69.43;99811.31;6146152;23;19981;-93
2023/09/29 04:07:48;;;;;;;24.67;9.00;;;;;;;13.03;69.43;99807.25;6116303;23;20019;-93
2023/09/29 04:10:14;;;;;;;36.60;12.52;;;;;;;13.13;69.20;99812.63;6115941;23;20000;-93
2023/09/29 04:12:41;;;;;;;29.92;12.38;;;;;;;13.20;69.24;99817.75;6140778;23;20008;-92
2023/09/29 04:15:07;;;;;;;24.42;9.57;;;;;;;12.99;69.63;99804.31;6140168;23;20328;-93
2023/09/29 04:17:34;;;;;;;15.75;8.10;;;;;;;13.03;69.82;99809.97;6117987;23;20001;-92
2023/09/29 04:20:02;;;;;;;20.60;8.63;;;;;;;12.97;69.55;99809.19;6116832;23;20503;-93
2023/09/29 04:22:28;;;;;;;20.98;9.23;;;;;;;13.00;69.24;99810.53;6143047;23;20424;-93
2023/09/29 04:24:57;;;;;;;18.52;7.95;;;;;;;13.07;69.51;99811.88;6116124;23;20001;-95
2023/09/29 04:27:26;;;;;;;25.42;9.43;;;;;;;13.14;69.19;99825.09;6141083;23;20077;-91
2023/09/29 04:30:30;;;;;;;18.30;8.13;;;;;;;13.06;69.74;99810.22;6141767;23;20079;-93
2023/09/29 04:32:55;;;;;;;19.35;9.18;;;;;;;13.10;69.95;99810.50;6130252;23;20001;-93
2023/09/29 04:35:21;;;;;;;22.00;9.63;;;;;;;13.10;69.54;99807.78;6141021;23;19997;-89
2023/09/29 04:37:49;;;;;;;28.27;9.32;;;;;;;13.18;69.28;99807.22;6116995;23;20013;-91
2023/09/29 04:40:15;;;;;;;16.48;7.55;;;;;;;13.22;69.20;99816.41;6119663;23;20005;-92
2023/09/29 04:42:40;;;;;;;24.63;9.55;;;;;;;13.19;69.15;99810.75;6117461;23;20373;-92
2023/09/29 04:45:06;;;;;;;24.77;9.98;;;;;;;13.23;68.95;99834.25;6168308;23;20006;-93
2023/09/29 04:47:32;;;;;;;20.15;9.00;;;;;;;12.89;69.83;99804.31;6143834;23;20417;-94
2023/09/29 04:49:58;;;;;;;21.95;8.30;;;;;;;12.87;70.03;99803.78;6118888;23;20510;-93
2023/09/29 04:52:26;;;;;;;16.38;7.80;;;;;;;12.93;69.90;99811.63;6120762;23;20000;-94
2023/09/29 04:54:52;;;;;;;25.90;9.23;;;;;;;12.90;70.41;99830.25;6145064;23;20001;-93
2023/09/29 04:57:17;;;;;;;16.55;7.97;;;;;;;12.92;69.77;99820.78;6117838;23;20032;-94
2023/09/29 04:59:53;;;;;;;16.15;8.30;;;;;;;13.12;69.53;99838.06;6113459;23;20024;-95
2023/09/29 05:02:21;;;;;;;14.73;8.27;;;;;;;13.13;69.35;99829.66;6140139;23;20012;-94
2023/09/29 05:04:47;;;;;;;18.73;8.43;;;;;;;13.12;69.77;99838.88;6114240;23;20025;-94
2023/09/29 05:07:12;;;;;;;18.25;7.78;;;;;;;13.16;69.47;99836.44;6114893;23;20009;-95
2023/09/29 05:09:38;;;;;;;22.08;9.45;;;;;;;13.23;69.66;99855.06;6114601;23;20005;-94
2023/09/29 05:12:04;;;;;;;16.27;7.72;;;;;;;13.28;69.61;99844.22;6115164;23;20008;-94
2023/09/29 05:14:40;;;;;;;23.13;8.35;;;;;;;13.24;69.04;99832.34;6117190;23;20012;-95
2023/09/29 05:17:06;;;;;;;19.35;8.10;;;;;;;13.38;69.06;99852.34;6116591;23;20038;-96
2023/09/29 05:19:32;;;;;;;23.85;11.02;;;;;;;13.32;69.53;99851.56;6117559;23;20081;-94
2023/09/29 05:22:21;;;;;;;22.50;9.82;;;;;;;13.36;68.93;99832.09;6142548;23;20003;-94
2023/09/29 05:24:49;;;;;;;25.23;9.55;;;;;;;13.57;69.03;99865.28;6141918;23;20060;-93
2023/09/29 05:27:32;;;;;;;16.35;8.48;;;;;;;13.67;68.95;99870.66;6120149;23;20029;-96
2023/09/29 05:30:01;;;;;;;18.83;7.15;;;;;;;13.72;68.65;99879.56;6142691;23;20001;-95
2023/09/29 05:32:33;;;;;;;15.20;8.13;;;;;;;13.69;68.56;99863.06;6141193;23;20001;-96
2023/09/29 05:34:58;;;;;;;;;;;;;;;13.87;67.97;99889.53;6140856;23;20005;-94
2023/09/29 05:37:24;;;;;;;16.92;7.45;;;;;;;13.75;67.62;99849.22;6138338;23;19909;-92
2023/09/29 05:39:52;;;;;;;18.10;8.13;;;;;;;13.97;67.66;99866.22;6114782;23;20005;-96
2023/09/29 05:42:43;;;;;;;22.10;7.75;;;;;;;14.08;67.29;99887.53;6115134;23;20015;-96
2023/09/29 05:45:27;;;;;;;19.83;9.35;;;;;;;14.12;67.39;99894.00;6129398;23;20069;-93
2023/09/29 05:48:30;;;;;;;29.15;15.02;;;;;;;14.07;67.03;99858.00;6117264;23;20005;-90
2023/09/29 05:51:50;;;;;;;22.00;9.52;;;;;;;14.49;66.12;99889.19;6101384;23;20006;-95
2023/09/29 05:54:16;;;;;;;16.70;8.55;;;;;;;14.51;65.66;99868.84;6086273;23;20011;-94
2023/09/29 05:57:07;;;;;;;47.63;13.57;;;;;;;14.54;65.31;99862.84;6126723;23;20002;-96
2023/09/29 06:00:20;;;;;;;;;;;;;;;;;;;;;
2023/09/29 06:02:51;;;;;;;27.70;8.43;;;;;;;14.85;64.62;99857.22;6194517;23;20027;-96
2023/09/29 06:05:20;;;;;;;19.65;7.88;;;;;;;14.98;64.01;99860.34;6168489;23;20009;-96
2023/09/29 06:08:13;;;;;;;15.48;8.43;;;;;;;15.14;63.61;99878.91;6169676;23;20001;-95
2023/09/29 06:14:32;;;;;;;21.75;7.95;;;;;;;15.46;62.78;99863.94;6020677;23;20033;-95
2023/09/29 06:17:45;;;;;;;23.42;8.18;;;;;;;15.70;62.40;99895.69;6059632;23;20006;-94
2023/09/29 06:20:15;;;;;;;18.15;7.70;;;;;;;15.74;62.06;99889.41;6005081;23;20004;-96
2023/09/29 06:22:45;;;;;;;17.38;8.07;;;;;;;15.75;61.66;99860.38;5999902;23;20016;-95
2023/09/29 06:29:18;;;;;;;25.92;8.93;;;;;;;15.96;60.04;99858.19;5995493;24;20011;-95
2023/09/29 06:32:13;;;;;;;;;;;;;;;;;;;;;
2023/09/29 06:34:58;;;;;;;16.90;7.38;;;;;;;16.23;59.25;99868.41;6019804;23;20027;-94
2023/09/29 06:37:46;;;;;;;16.42;7.63;;;;;;;16.65;58.77;99890.34;5997888;23;20018;-95
2023/09/29 06:48:14;;;;;;;18.23;7.05;;;;;;;16.88;56.73;99880.50;5976794;23;20028;-94
2023/09/29 06:50:59;;;;;;;;;;;;;;;;;;;;;
2023/09/29 06:53:36;;;;;;;17.90;7.53;;;;;;;17.30;55.92;99889.53;6083971;23;20029;-94
2023/09/29 06:56:05;;;;;;;20.30;7.93;;;;;;;17.50;55.31;99897.31;6034423;23;20015;-93
2023/09/29 06:59:00;;;;;;;33.70;6.72;;;;;;;17.65;54.38;99868.97;6112620;23;20014;-92
2023/09/29 07:01:27;;;;;;;18.67;6.25;;;;;;;17.96;53.12;99910.03;6168537;23;20051;-91
2023/09/29 07:04:58;;;;;;;14.60;5.28;;;;;;;17.95;52.41;99869.47;6165775;23;20005;-93
2023/09/29 07:07:08;;;;;;;32.25;10.05;;;;;;;18.24;52.41;99880.03;6178968;23;20080;-91
2023/09/29 07:09:34;;;;;;;16.45;7.07;;;;;;;18.48;52.57;99901.56;6144105;23;20001;-95
2023/09/29 07:12:11;;;;;;;;;;;;;;;;;;;;;
2023/09/29 07:14:39;;;;;;;16.00;5.93;;;;;;;18.78;50.74;99861.03;6167522;23;20027;-94
2023/09/29 07:17:20;;;;;;;11.93;5.25;;;;;;;19.14;48.19;99890.16;6165226;23;20432;-90
2023/09/29 07:19:51;;;;;;;13.98;6.10;;;;;;;19.15;47.98;99875.38;6149613;23;20063;-95
2023/09/29 07:22:17;;;;;;;22.77;7.53;;;;;;;19.26;46.66;99890.41;6149042;23;19997;-94
2023/09/29 07:24:43;;;;;;;7.57;3.60;;;;;;;19.33;44.67;99882.53;6144983;23;20001;-94
2023/09/29 07:27:17;;;;;;;7.70;2.60;;;;;;;19.37;42.65;99860.88;6145965;23;19997;-92
2023/09/29 07:29:43;;;;;;;7.25;2.95;;;;;;;19.63;41.45;99885.56;6148793;23;20001;-93
2023/09/29 07:39:32;;;;;;;5.45;2.80;;;;;;;20.09;40.30;99875.25;6139886;23;20068;-94
2023/09/29 07:42:13;;;;;;;10.10;3.63;;;;;;;20.11;40.78;99867.53;6092428;23;20021;-95
2023/09/29 07:44:39;;;;;;;6.38;3.00;;;;;;;20.24;39.96;99873.97;6108819;23;20053;-92
2023/09/29 07:47:46;;;;;;;;;;;;;;;;;;;;;
2023/09/29 08:19:42;;;;;;;8.95;3.05;;;;;;;21.06;37.32;99885.03;6149427;23;20243;-95
2023/09/29 08:32:11;;;;;;;9.55;3.15;;;;;;;21.46;38.59;99891.06;6176045;23;20032;-96
2023/09/29 08:34:52;;;;;;;7.82;2.97;;;;;;;21.24;38.03;99872.09;6128759;23;20005;-95
2023/09/29 08:43:06;;;;;;;5.32;3.00;;;;;;;21.53;38.45;99880.38;6136416;23;20053;-95
2023/09/29 08:45:33;;;;;;;14.25;2.92;;;;;;;21.48;37.16;99866.06;6140948;23;20054;-95
2023/09/29 09:10:14;;;;;;;7.40;2.75;;;;;;;22.12;36.33;99867.78;6197657;22;20021;-95
2023/09/29 09:12:43;;;;;;;9.02;3.03;;;;;;;22.11;36.99;99825.03;6123842;23;20112;-96
2023/09/29 09:32:07;;;;;;;14.50;4.13;;;;;;;22.60;35.79;99833.53;6087776;22;20028;-93
2023/09/29 09:34:33;;;;;;;14.18;3.25;;;;;;;22.48;36.52;99826.03;6123952;23;20578;-92
2023/09/29 09:37:11;;;;;;;8.75;3.13;;;;;;;22.64;35.17;99839.13;6120329;23;20001;-95
2023/09/29 09:39:42;;;;;;;9.43;2.97;;;;;;;22.73;35.51;99840.66;6124237;23;20385;-96
2023/09/29 09:42:11;;;;;;;12.60;3.30;;;;;;;22.86;35.52;99838.75;6119884;23;20420;-93
2023/09/29 09:44:45;;;;;;;12.93;3.50;;;;;;;23.09;36.03;99841.91;6148805;23;20004;-93
2023/09/29 09:47:14;;;;;;;9.05;3.85;;;;;;;23.10;36.20;99835.28;6128733;23;20474;-93
2023/09/29 09:49:47;;;;;;;12.98;3.33;;;;;;;23.18;35.30;99839.06;6122693;23;20000;-93
2023/09/29 09:52:42;;;;;;;6.43;3.45;;;;;;;23.31;34.71;99837.94;6144907;23;20069;-92
2023/09/29 09:55:10;;;;;;;11.48;3.28;;;;;;;23.39;34.61;99820.53;6151656;23;20005;-95
2023/09/29 09:57:41;;;;;;;8.52;3.95;;;;;;;23.37;35.03;99819.28;6144873;23;20347;-93
2023/09/29 10:00:30;;;;;;;8.23;3.30;;;;;;;23.35;35.80;99816.88;6122734;23;20324;-93
2023/09/29 10:03:03;;;;;;;17.50;3.55;;;;;;;23.24;36.17;99807.47;6149319;23;20009;-95
2023/09/29 10:05:42;;;;;;;9.68;3.33;;;;;;;23.42;34.86;99824.53;6121204;23;20024;-92
2023/09/29 10:08:30;;;;;;;11.02;3.65;;;;;;;23.49;35.24;99824.78;6123056;23;20005;-95
2023/09/29 10:11:24;;;;;;;8.85;3.47;;;;;;;23.43;34.91;99809.66;6145508;23;20382;-93
2023/09/29 10:14:30;;;;;;;;;;;;;;;;;;;;;
2023/09/29 10:21:00;;;;;;;9.52;3.75;;;;;;;23.83;33.63;99843.91;5931519;24;20076;-95
2023/09/29 10:23:30;;;;;;;16.30;3.75;;;;;;;23.58;33.75;99803.44;6130050;23;20008;-96
2023/09/29 10:26:22;;;;;;;6.72;3.88;;;;;;;23.73;34.05;99818.44;6139475;23;20081;-95
2023/09/29 10:35:47;;;;;;;9.82;3.50;;;;;;;23.85;34.13;99805.84;6053058;23;20007;-93
2023/09/29 10:38:29;;;;;;;10.57;3.65;;;;;;;23.96;33.53;99816.00;6005458;23;20079;-94
2023/09/29 10:41:21;;;;;;;25.13;12.98;;;;;;;23.76;33.42;99798.53;6027871;23;20062;-94
2023/09/29 10:43:53;;;;;;;;;;;;;;;23.95;33.14;99803.41;6031549;23;20014;-96
2023/09/29 10:46:44;;;;;;;6.43;4.20;;;;;;;23.97;33.12;99798.38;6092192;23;19911;-95
2023/09/29 10:49:46;;;;;;;13.73;3.85;;;;;;;23.87;33.23;99773.31;6122055;23;20016;-93
2023/09/29 10:52:48;;;;;;;7.55;4.47;;;;;;;23.85;33.30;99765.41;6021837;23;20041;-94
2023/09/29 10:56:16;;;;;;;8.00;4.88;;;;;;;23.95;33.13;99770.41;5917917;24;20004;-94
2023/09/29 10:59:12;;;;;;;13.98;4.68;;;;;;;24.14;32.98;99780.78;5987858;23;20445;-93
2023/09/29 11:02:08;;;;;;;7.50;3.90;;;;;;;24.07;31.78;99774.25;6001200;23;20010;-94
2023/09/29 11:04:48;;;;;;;9.10;5.00;;;;;;;23.90;31.72;99742.34;5967171;24;20104;-94
2023/09/29 11:21:39;;;;;;;9.40;4.90;;;;;;;24.34;30.15;99734.13;5968312;24;20011;-92
2023/09/29 11:24:48;;;;;;;8.93;4.25;;;;;;;24.49;30.12;99754.59;5961088;24;20459;-93
2023/09/29 11:27:15;;;;;;;9.10;3.97;;;;;;;24.52;30.00;99745.66;5945991;23;20024;-93
2023/09/29 11:29:50;;;;;;;16.13;4.35;;;;;;;24.55;30.19;99748.50;6084835;23;20010;-95
2023/09/29 11:33:20;;;;;;;;;;;;;;;;;;;;;
2023/09/29 11:36:07;;;;;;;;;;;;;;;;;;;;;
2023/09/29 11:38:47;;;;;;;11.77;4.63;;;;;;;24.36;30.14;99734.56;6061747;23;20045;-93
2023/09/29 11:41:29;;;;;;;13.25;4.60;;;;;;;24.34;30.06;99745.13;6041008;23;20072;-94
2023/09/29 11:44:20;;;;;;;;;;;;;;;;;;;;;
2023/09/29 11:47:20;;;;;;;10.07;4.68;;;;;;;24.37;30.18;99738.94;6085179;23;20042;-93
2023/09/29 11:49:56;;;;;;;10.95;4.18;;;;;;;24.37;30.38;99739.72;6065467;23;20030;-95
2023/09/29 11:52:44;;;;;;;17.23;4.97;;;;;;;24.50;30.01;99750.69;6061476;23;20067;-95
2023/09/29 11:58:56;;;;;;;;;;;;;;;;;;;;;
2023/09/29 12:01:23;;;;;;;8.43;3.70;;;;;;;24.64;29.86;99717.25;6007148;23;20455;-92
2023/09/29 12:04:00;;;;;;;;;;;;;;;;;;;;;
2023/09/29 12:06:34;;;;;;;7.30;4.28;;;;;;;24.64;29.15;99731.81;6014432;23;20014;-92
2023/09/29 12:09:08;;;;;;;9.55;3.90;;;;;;;24.72;29.69;99730.03;6000635;23;20015;-94
2023/09/29 12:11:42;;;;;;;10.18;4.30;;;;;;;24.86;29.49;99715.81;6005992;23;20041;-93
2023/09/29 12:14:15;;;;;;;10.88;4.60;;;;;;;25.05;28.51;99737.13;6025558;23;20043;-93
2023/09/29 12:16:41;;;;;;;15.93;5.20;;;;;;;25.11;29.01;99739.25;6002089;23;20007;-93
2023/09/29 12:19:12;;;;;;;8.52;5.20;;;;;;;25.12;28.54;99723.53;6001653;23;20008;-93
2023/09/29 12:21:51;;;;;;;11.68;4.72;;;;;;;25.23;28.32;99721.03;6002312;23;20007;-93
2023/09/29 12:24:19;;;;;;;7.95;4.78;;;;;;;25.27;28.43;99735.69;6004013;23;20035;-95
2023/09/29 12:26:46;;;;;;;11.85;4.80;;;;;;;25.15;28.56;99722.78;6044859;23;20022;-94
2023/09/29 12:29:21;;;;;;;11.07;4.70;;;;;;;25.19;28.60;99734.69;6116906;23;19997;-93
2023/09/29 12:32:00;;;;;;;11.35;4.50;;;;;;;25.27;28.43;99719.97;6107633;23;20503;-93
2023/09/29 12:34:47;;;;;;;32.75;5.47;;;;;;;25.22;28.74;99703.72;6065533;23;20001;-95
2023/09/29 12:37:22;;;;;;;10.60;4.63;;;;;;;25.43;28.09;99730.16;6083207;23;20061;-94
2023/09/29 12:39:56;;;;;;;11.68;4.30;;;;;;;25.35;28.40;99696.91;6064714;23;20022;-93
2023/09/29 12:42:25;;;;;;;16.15;4.50;;;;;;;25.33;28.22;99692.91;6084459;23;20006;-93
2023/09/29 12:45:04;;;;;;;;;;;;;;;;;;;;;
2023/09/29 12:47:33;;;;;;;10.27;4.50;;;;;;;25.36;27.83;99712.31;6088336;23;20036;-95
2023/09/29 12:49:58;;;;;;;8.25;4.20;;;;;;;25.21;27.89;99699.34;6082317;23;20006;-95
2023/09/29 12:52:46;;;;;;;13.73;4.72;;;;;;;25.45;28.37;99705.78;6063179;23;20002;-95
2023/09/29 12:55:15;;;;;;;16.02;4.05;;;;;;;25.24;28.27;99679.34;6084188;23;19998;-93
2023/09/29 12:57:59;;;;;;;8.60;4.40;;;;;;;25.44;28.46;99696.69;6060639;23;20006;-94
2023/09/29 13:00:28;;;;;;;11.45;4.28;;;;;;;25.33;28.24;99671.66;6066686;23;20001;-92
2023/09/29 13:02:54;;;;;;;7.60;3.95;;;;;;;25.40;28.11;99684.78;6095653;23;20001;-94
2023/09/29 13:05:24;;;;;;;7.40;3.90;;;;;;;25.36;28.16;99670.16;6118661;23;20027;-94
2023/09/29 13:07:51;;;;;;;10.10;4.20;;;;;;;25.52;28.49;99681.91;6121466;23;20060;-93
2023/09/29 13:10:19;;;;;;;10.23;4.28;;;;;;;25.55;28.27;99666.63;6143859;23;20240;-92
2023/09/29 13:12:54;;;;;;;11.70;4.47;;;;;;;25.61;28.41;99668.72;6115976;23;20009;-91
2023/09/29 13:15:28;;;;;;;8.50;3.78;;;;;;;25.33;28.17;99663.38;6117517;23;20044;-86
2023/09/29 13:17:55;;;;;;;6.43;4.25;;;;;;;25.43;27.96;99669.50;6143937;23;20356;-91
2023/09/29 13:20:20;;;;;;;10.38;4.00;;;;;;;25.44;28.07;99655.34;6114667;23;20008;-91
2023/09/29 13:22:47;;;;;;;9.88;3.95;;;;;;;25.56;28.43;99673.72;6115147;23;20067;-92
2023/09/29 13:25:22;;;;;;;15.88;5.88;;;;;;;25.52;28.41;99659.06;6118011;23;20001;-95
2023/09/29 13:27:49;;;;;;;10.02;3.75;;;;;;;25.46;28.24;99664.06;6164615;23;20084;-93
2023/09/29 13:30:17;;;;;;;11.50;3.90;;;;;;;25.35;28.36;99663.81;6139175;23;20007;-93
2023/09/29 13:32:43;;;;;;;10.20;4.10;;;;;;;25.33;28.68;99654.31;6115448;23;19993;-92
2023/09/29 13:35:14;;;;;;;13.27;4.10;;;;;;;25.33;28.23;99646.84;6141704;23;20009;-94
2023/09/29 13:37:40;;;;;;;8.82;3.40;;;;;;;25.37;28.40;99650.47;6118973;23;20009;-92
2023/09/29 13:40:11;;;;;;;10.13;3.88;;;;;;;25.31;29.03;99643.66;6112179;23;20068;-93
2023/09/29 13:42:57;;;;;;;27.17;5.22;;;;;;;25.38;28.73;99645.75;6113874;23;20081;-94
2023/09/29 13:45:47;;;;;;;11.85;3.85;;;;;;;25.31;28.65;99640.09;6196363;23;20028;-96
2023/09/29 13:48:16;;;;;;;9.02;3.83;;;;;;;25.50;28.60;99662.16;6125132;23;20001;-94
2023/09/29 13:50:43;;;;;;;12.15;4.30;;;;;;;25.43;28.90;99651.00;6142523;23;20005;-92
2023/09/29 13:53:09;;;;;;;11.18;3.60;;;;;;;25.44;28.82;99641.56;6118604;23;20032;-94
2023/09/29 13:55:37;;;;;;;13.40;4.20;;;;;;;25.43;28.21;99650.22;6115445;23;19997;-94
2023/09/29 13:58:12;;;;;;;8.98;3.90;;;;;;;25.35;28.87;99635.47;6115789;23;20005;-93
2023/09/29 14:00:41;;;;;;;7.75;3.78;;;;;;;25.44;28.94;99649.81;6117807;23;20019;-93
2023/09/29 14:03:20;;;;;;;15.43;3.97;;;;;;;25.41;28.33;99643.09;6118900;23;20005;-92
2023/09/29 14:05:46;;;;;;;11.93;3.78;;;;;;;25.51;28.32;99649.19;6171509;23;20004;-94
2023/09/29 14:08:17;;;;;;;6.25;3.65;;;;;;;25.43;28.27;99645.50;6138475;23;20038;-93
2023/09/29 14:10:43;;;;;;;13.10;4.35;;;;;;;25.43;28.50;99647.44;6116143;23;20012;-95
2023/09/29 14:13:12;;;;;;;13.80;4.20;;;;;;;25.33;28.81;99646.84;6138904;23;20029;-94
2023/09/29 14:15:45;;;;;;;11.93;4.13;;;;;;;25.34;28.86;99639.41;6141309;23;20001;-93
2023/09/29 14:18:11;;;;;;;12.75;3.75;;;;;;;25.23;28.88;99636.38;6110279;23;20033;-93
2023/09/29 14:20:45;;;;;;;9.27;4.07;;;;;;;25.24;29.18;99626.97;6134779;23;20017;-94
2023/09/29 14:23:11;;;;;;;8.25;4.03;;;;;;;25.29;28.83;99637.69;6110916;23;19998;-91